Time;durP1;ratioP1;P1;durP2;ratioP2;P2;SDS_P1;SDS_P2;PMS_P1;PMS_P2;Temp;Humidity;BMP_temperature;BMP_pressure;BME280_temperature;BME280_humidity;BME280_pressure;Samples;Min_cycle;Max_cycle;Signal;HPM_P1;HPM_P2
2022/03/16 00:01:13;;;;;;;0.30;0.30;;;9.50;97.30;;;;;;5052423;28;20200;-72
2022/03/16 00:03:39;;;;;;;0.30;0.30;;;9.40;97.40;;;;;;5053361;28;20825;-74
2022/03/16 00:06:05;;;;;;;0.60;0.60;;;9.40;97.50;;;;;;5052807;28;20458;-74
2022/03/16 00:08:31;;;;;;;0.40;0.40;;;9.30;97.70;;;;;;5053353;28;20569;-74
2022/03/16 00:10:58;;;;;;;0.30;0.30;;;9.30;97.80;;;;;;5053104;28;20167;-75
2022/03/16 00:13:24;;;;;;;0.30;0.30;;;9.20;97.80;;;;;;5052401;28;20183;-73
2022/03/16 00:15:50;;;;;;;0.30;0.30;;;9.20;97.80;;;;;;5053742;28;20187;-75
2022/03/16 00:18:15;;;;;;;0.50;0.50;;;9.20;97.80;;;;;;5053852;28;20233;-72
2022/03/16 00:20:41;;;;;;;0.30;0.30;;;9.10;97.80;;;;;;5053658;28;20225;-75
2022/03/16 00:23:07;;;;;;;0.30;0.30;;;9.10;98.00;;;;;;5053729;28;20435;-74
2022/03/16 00:25:32;;;;;;;0.30;0.30;;;9.00;98.10;;;;;;5053710;28;20206;-74
2022/03/16 00:27:58;;;;;;;0.40;0.40;;;9.00;98.20;;;;;;5053582;28;20663;-73
2022/03/16 00:30:24;;;;;;;0.30;0.30;;;9.00;98.10;;;;;;5053646;28;20273;-75
2022/03/16 00:32:49;;;;;;;0.30;0.30;;;9.00;98.00;;;;;;5053618;28;20221;-73
2022/03/16 00:35:15;;;;;;;0.40;0.40;;;9.00;98.10;;;;;;5053559;28;20192;-74
2022/03/16 00:37:41;;;;;;;0.40;0.40;;;9.00;98.20;;;;;;5053505;28;20168;-75
2022/03/16 00:40:09;;;;;;;0.30;0.30;;;8.90;98.10;;;;;;5053423;28;20250;-74
2022/03/16 00:42:35;;;;;;;0.30;0.30;;;8.80;98.00;;;;;;5053564;28;20403;-74
2022/03/16 00:45:00;;;;;;;0.30;0.30;;;8.70;98.20;;;;;;5053262;28;20224;-72
2022/03/16 00:47:26;;;;;;;0.30;0.30;;;8.70;98.30;;;;;;5053413;28;20175;-72
2022/03/16 00:49:52;;;;;;;0.40;0.40;;;8.70;98.20;;;;;;5053300;28;20488;-75
2022/03/16 00:52:18;;;;;;;0.30;0.30;;;8.60;98.40;;;;;;5052205;28;20171;-73
2022/03/16 00:54:44;;;;;;;0.88;0.88;;;8.40;99.40;;;;;;5052144;28;20610;-74
2022/03/16 00:57:09;;;;;;;0.50;0.50;;;8.40;99.70;;;;;;5053325;28;20259;-72
2022/03/16 00:59:35;;;;;;;0.30;0.30;;;8.60;99.50;;;;;;5053675;28;20182;-73
2022/03/16 01:02:01;;;;;;;0.40;0.40;;;8.60;99.10;;;;;;5053153;28;20273;-73
2022/03/16 01:04:26;;;;;;;0.30;0.30;;;8.60;98.90;;;;;;5053636;28;20163;-73
2022/03/16 01:06:53;;;;;;;0.40;0.40;;;8.60;98.90;;;;;;5053262;28;20450;-72
2022/03/16 01:09:20;;;;;;;0.40;0.40;;;8.60;98.80;;;;;;5053524;28;20530;-73
2022/03/16 01:11:45;;;;;;;0.30;0.30;;;8.60;98.60;;;;;;5053043;28;20162;-73
2022/03/16 01:14:11;;;;;;;0.30;0.30;;;8.50;98.70;;;;;;5053242;28;20212;-73
2022/03/16 01:16:39;;;;;;;1.50;1.40;;;8.50;98.70;;;;;;5053211;28;20568;-75
2022/03/16 01:19:05;;;;;;;0.30;0.30;;;8.50;98.90;;;;;;5055911;28;20180;-75
2022/03/16 01:21:32;;;;;;;0.30;0.30;;;8.50;99.10;;;;;;5057158;28;20178;-75
2022/03/16 01:23:58;;;;;;;0.38;0.38;;;8.50;99.30;;;;;;5057340;28;20167;-72
2022/03/16 01:26:24;;;;;;;0.35;0.35;;;8.50;99.40;;;;;;5056967;28;20655;-73
2022/03/16 01:28:50;;;;;;;0.40;0.40;;;8.30;99.60;;;;;;5057195;28;20253;-74
2022/03/16 01:31:19;;;;;;;0.40;0.40;;;8.30;99.50;;;;;;5056862;28;20398;-73
2022/03/16 01:33:45;;;;;;;0.30;0.30;;;8.40;99.60;;;;;;5057097;28;20174;-73
2022/03/16 01:36:10;;;;;;;0.30;0.30;;;8.30;99.80;;;;;;5057470;28;20194;-74
2022/03/16 01:38:36;;;;;;;0.30;0.30;;;8.30;99.80;;;;;;5056978;28;20170;-74
2022/03/16 01:41:02;;;;;;;0.37;0.37;;;8.40;99.60;;;;;;5056787;28;20411;-75
2022/03/16 01:43:27;;;;;;;0.30;0.30;;;8.50;99.30;;;;;;5056802;28;20167;-73
2022/03/16 01:45:53;;;;;;;0.40;0.40;;;8.60;99.20;;;;;;5056641;28;20931;-71
2022/03/16 01:48:19;;;;;;;0.40;0.40;;;8.60;99.10;;;;;;5056631;28;20203;-75
2022/03/16 01:50:47;;;;;;;0.40;0.40;;;8.50;99.00;;;;;;5056619;28;20247;-73
2022/03/16 01:53:13;;;;;;;0.40;0.40;;;8.50;99.10;;;;;;5056707;28;20170;-72
2022/03/16 01:55:40;;;;;;;0.40;0.40;;;8.50;99.00;;;;;;5057261;28;20216;-75
2022/03/16 01:58:06;;;;;;;0.35;0.35;;;8.50;99.10;;;;;;5056474;28;20918;-73
2022/03/16 02:00:32;;;;;;;0.40;0.40;;;8.40;99.10;;;;;;5056106;28;20206;-72
2022/03/16 02:02:57;;;;;;;0.40;0.40;;;8.30;99.20;;;;;;5056692;28;20171;-73
2022/03/16 02:05:23;;;;;;;0.40;0.40;;;8.30;99.30;;;;;;5056280;28;20302;-74
2022/03/16 02:07:49;;;;;;;0.40;0.40;;;8.20;99.40;;;;;;5056384;28;20167;-72
2022/03/16 02:10:16;;;;;;;0.40;0.40;;;8.20;99.30;;;;;;5056911;28;20194;-72
2022/03/16 02:12:47;;;;;;;0.30;0.30;;;8.10;99.40;;;;;;5058024;28;20245;-74
2022/03/16 02:15:13;;;;;;;0.30;0.30;;;8.10;99.50;;;;;;5056199;28;20223;-74
2022/03/16 02:17:40;;;;;;;0.30;0.30;;;8.20;99.40;;;;;;5056239;28;20262;-73
2022/03/16 02:20:07;;;;;;;0.30;0.30;;;8.20;99.50;;;;;;5055995;28;20178;-71
2022/03/16 02:22:37;;;;;;;0.70;0.70;;;8.30;99.20;;;;;;5056168;28;20212;-74
2022/03/16 02:25:04;;;;;;;0.40;0.40;;;8.30;99.20;;;;;;5056369;28;20226;-72
2022/03/16 02:27:29;;;;;;;0.30;0.30;;;8.30;99.10;;;;;;5056040;28;20162;-75
2022/03/16 02:29:55;;;;;;;0.30;0.30;;;8.30;99.00;;;;;;5055713;28;20182;-75
2022/03/16 02:32:21;;;;;;;0.30;0.30;;;8.20;99.10;;;;;;5056094;28;20177;-75
2022/03/16 02:34:46;;;;;;;0.30;0.30;;;8.20;99.10;;;;;;5055941;28;20310;-74
2022/03/16 02:37:12;;;;;;;0.30;0.30;;;8.20;99.40;;;;;;5055894;28;20511;-73
2022/03/16 02:39:38;;;;;;;0.40;0.40;;;8.10;99.30;;;;;;5055921;28;20181;-74
2022/03/16 02:42:05;;;;;;;0.40;0.40;;;8.20;99.40;;;;;;5055608;28;20174;-73
2022/03/16 02:44:30;;;;;;;0.40;0.40;;;8.10;99.30;;;;;;5055811;28;20488;-72
2022/03/16 02:46:56;;;;;;;0.40;0.40;;;8.10;99.20;;;;;;5055626;28;20292;-74
2022/03/16 02:49:22;;;;;;;0.30;0.30;;;8.10;99.20;;;;;;5055721;28;20625;-74
2022/03/16 02:51:48;;;;;;;0.30;0.30;;;8.10;99.30;;;;;;5055326;28;20683;-75
2022/03/16 02:54:13;;;;;;;0.40;0.40;;;8.10;99.30;;;;;;5055656;28;20420;-73
2022/03/16 02:56:39;;;;;;;0.30;0.30;;;8.00;99.50;;;;;;5055291;28;20556;-73
2022/03/16 02:59:05;;;;;;;0.30;0.30;;;8.10;99.40;;;;;;5055576;28;20253;-73
2022/03/16 03:01:31;;;;;;;0.37;0.37;;;8.10;99.30;;;;;;5055080;28;20205;-75
2022/03/16 03:03:56;;;;;;;0.30;0.30;;;8.10;99.10;;;;;;5055484;28;20396;-73
2022/03/16 03:06:22;;;;;;;0.40;0.40;;;8.10;99.20;;;;;;5055389;28;20491;-75
2022/03/16 03:08:48;;;;;;;0.30;0.30;;;8.10;99.10;;;;;;5055248;28;20175;-74
2022/03/16 03:11:14;;;;;;;0.40;0.40;;;8.10;99.20;;;;;;5053687;28;20602;-75
2022/03/16 03:13:40;;;;;;;0.30;0.30;;;8.10;99.30;;;;;;5055361;28;20202;-75
2022/03/16 03:16:06;;;;;;;0.40;0.40;;;8.10;99.40;;;;;;5054975;28;20213;-73
2022/03/16 03:18:35;;;;;;;0.30;0.30;;;8.10;99.20;;;;;;5055171;28;20648;-75
2022/03/16 03:21:01;;;;;;;1.05;1.00;;;8.00;99.20;;;;;;5054794;28;20166;-74
2022/03/16 03:23:27;;;;;;;0.40;0.40;;;8.00;99.30;;;;;;5055117;28;20632;-75
2022/03/16 03:25:53;;;;;;;0.30;0.30;;;8.00;99.30;;;;;;5054752;28;20197;-73
2022/03/16 03:28:18;;;;;;;0.30;0.30;;;8.10;99.20;;;;;;5054970;28;20401;-72
2022/03/16 03:30:44;;;;;;;0.30;0.30;;;8.10;99.20;;;;;;5054696;28;20886;-73
2022/03/16 03:33:10;;;;;;;0.40;0.40;;;8.00;99.20;;;;;;5054919;28;20686;-74
2022/03/16 03:35:37;;;;;;;0.40;0.40;;;8.00;99.40;;;;;;5054641;28;20248;-72
2022/03/16 03:38:02;;;;;;;0.80;0.80;;;7.90;99.40;;;;;;5054562;28;20426;-75
2022/03/16 03:40:28;;;;;;;0.30;0.30;;;7.90;99.40;;;;;;5053660;28;20182;-73
2022/03/16 03:42:54;;;;;;;0.40;0.40;;;7.90;99.50;;;;;;5054471;28;20174;-74
2022/03/16 03:45:20;;;;;;;0.37;0.37;;;7.90;99.30;;;;;;5054450;28;20329;-71
2022/03/16 03:47:45;;;;;;;0.30;0.30;;;7.90;99.40;;;;;;5054625;28;20537;-75
2022/03/16 03:50:11;;;;;;;0.40;0.40;;;7.90;99.30;;;;;;5054094;28;20416;-74
2022/03/16 03:52:37;;;;;;;0.30;0.30;;;7.90;99.30;;;;;;5054823;28;20158;-74
2022/03/16 03:55:04;;;;;;;0.30;0.30;;;7.80;99.30;;;;;;5054214;28;20192;-75
2022/03/16 03:57:29;;;;;;;0.35;0.35;;;7.70;99.30;;;;;;5054452;28;20598;-73
2022/03/16 03:59:55;;;;;;;0.30;0.30;;;7.70;99.40;;;;;;5054221;28;20249;-74
2022/03/16 04:02:20;;;;;;;0.40;0.40;;;7.80;99.40;;;;;;5054492;28;20175;-73
2022/03/16 04:04:46;;;;;;;0.40;0.40;;;7.60;99.50;;;;;;5054201;28;20261;-73
2022/03/16 04:07:12;;;;;;;0.30;0.30;;;7.60;99.90;;;;;;5054374;28;20590;-73
2022/03/16 04:09:37;;;;;;;0.37;0.37;;;7.70;99.90;;;;;;5054045;28;20572;-73
2022/03/16 04:12:04;;;;;;;1.70;1.60;;;7.60;99.90;;;;;;5053863;28;20205;-72
2022/03/16 04:14:29;;;;;;;0.30;0.30;;;7.60;99.90;;;;;;5054034;28;20166;-74
2022/03/16 04:16:55;;;;;;;0.30;0.30;;;7.70;99.70;;;;;;5053833;28;20232;-74
2022/03/16 04:19:21;;;;;;;0.30;0.30;;;7.70;99.40;;;;;;5052868;28;20499;-75
2022/03/16 04:21:46;;;;;;;0.30;0.30;;;7.70;99.40;;;;;;5053621;28;20176;-74
2022/03/16 04:24:13;;;;;;;0.30;0.30;;;7.60;99.40;;;;;;5052421;28;20259;-72
2022/03/16 04:26:39;;;;;;;0.40;0.40;;;7.60;99.50;;;;;;5053560;28;20198;-73
2022/03/16 04:29:04;;;;;;;0.30;0.30;;;7.40;99.20;;;;;;5053774;28;20582;-75
2022/03/16 04:31:30;;;;;;;0.30;0.30;;;7.40;99.70;;;;;;5053443;28;20177;-73
2022/03/16 04:33:57;;;;;;;0.30;0.30;;;7.40;99.90;;;;;;5053698;28;20655;-74
2022/03/16 04:36:23;;;;;;;0.30;0.30;;;7.50;99.70;;;;;;5053377;28;20196;-74
2022/03/16 04:38:50;;;;;;;0.30;0.30;;;7.50;99.90;;;;;;5053672;28;20179;-74
2022/03/16 04:41:15;;;;;;;0.40;0.40;;;7.50;99.70;;;;;;5053411;28;20405;-72
2022/03/16 04:43:41;;;;;;;0.30;0.30;;;7.60;99.70;;;;;;5053604;28;20181;-73
2022/03/16 04:46:07;;;;;;;0.40;0.40;;;7.60;99.60;;;;;;5053472;28;20198;-72
2022/03/16 04:48:32;;;;;;;0.30;0.30;;;7.60;99.60;;;;;;5053394;28;20201;-75
2022/03/16 04:50:58;;;;;;;0.30;0.30;;;7.60;99.50;;;;;;5053160;28;20169;-73
2022/03/16 04:53:24;;;;;;;0.30;0.30;;;7.40;99.70;;;;;;5053392;28;20166;-75
2022/03/16 04:55:49;;;;;;;0.40;0.40;;;7.50;99.70;;;;;;5053272;28;20674;-74
2022/03/16 04:58:15;;;;;;;0.30;0.30;;;7.40;99.60;;;;;;5053447;28;20177;-75
2022/03/16 05:00:40;;;;;;;0.30;0.30;;;7.40;99.90;;;;;;5053060;28;20186;-73
2022/03/16 05:03:06;;;;;;;0.40;0.40;;;7.40;99.90;;;;;;5053398;28;20174;-73
2022/03/16 05:05:32;;;;;;;0.37;0.37;;;7.40;99.80;;;;;;5053080;28;20210;-72
2022/03/16 05:07:58;;;;;;;0.30;0.30;;;7.40;99.70;;;;;;5053253;28;20174;-74
2022/03/16 05:10:24;;;;;;;0.30;0.30;;;7.40;99.90;;;;;;5053246;28;20413;-74
2022/03/16 05:12:49;;;;;;;0.30;0.30;;;7.40;99.90;;;;;;5053270;28;20174;-74
2022/03/16 05:15:20;;;;;;;0.30;0.30;;;7.40;99.80;;;;;;5053218;28;20432;-74
2022/03/16 05:17:46;;;;;;;0.30;0.30;;;7.50;99.80;;;;;;5053157;28;20182;-73
2022/03/16 05:20:13;;;;;;;0.40;0.40;;;7.50;99.60;;;;;;5054308;28;20538;-75
2022/03/16 05:22:50;;;;;;;0.30;0.30;;;7.40;99.60;;;;;;5053399;28;20170;-72
2022/03/16 05:25:25;;;;;;;0.30;0.30;;;7.40;99.40;;;;;;5053051;28;20198;-74
2022/03/16 05:27:52;;;;;;;0.40;0.40;;;7.40;99.50;;;;;;5053118;28;20544;-74
2022/03/16 05:30:20;;;;;;;0.30;0.30;;;7.30;99.60;;;;;;5053087;28;20535;-74
2022/03/16 05:32:46;;;;;;;0.40;0.40;;;7.30;99.90;;;;;;5053085;28;20178;-72
2022/03/16 05:35:13;;;;;;;0.30;0.30;;;7.30;99.60;;;;;;5053026;28;20194;-74
2022/03/16 05:37:40;;;;;;;0.30;0.30;;;7.30;99.70;;;;;;5053098;28;20174;-75
2022/03/16 05:40:07;;;;;;;0.32;0.32;;;7.30;99.80;;;;;;5052961;28;20170;-74
2022/03/16 05:42:33;;;;;;;0.40;0.40;;;7.30;99.30;;;;;;5053125;28;20177;-74
2022/03/16 05:44:59;;;;;;;0.40;0.40;;;7.30;99.50;;;;;;5052793;28;20186;-72
2022/03/16 05:47:25;;;;;;;0.30;0.30;;;7.30;99.30;;;;;;5053094;28;20169;-73
2022/03/16 05:49:53;;;;;;;0.30;0.30;;;7.30;99.40;;;;;;5052977;28;20637;-73
2022/03/16 05:52:21;;;;;;;0.30;0.30;;;7.30;99.50;;;;;;5053040;28;20175;-74
2022/03/16 05:54:57;;;;;;;0.30;0.30;;;7.30;99.50;;;;;;5052830;28;20666;-72
2022/03/16 05:57:23;;;;;;;0.30;0.30;;;7.20;99.40;;;;;;5052798;28;20163;-74
2022/03/16 05:59:49;;;;;;;0.30;0.30;;;7.10;99.80;;;;;;5052962;28;20263;-72
2022/03/16 06:02:15;;;;;;;0.30;0.30;;;7.20;99.90;;;;;;5052483;28;20486;-71
2022/03/16 06:04:43;;;;;;;0.30;0.30;;;7.30;99.90;;;;;;5055639;28;20170;-72
2022/03/16 06:07:09;;;;;;;0.30;0.30;;;7.30;99.90;;;;;;5056219;28;20190;-72
2022/03/16 06:09:35;;;;;;;0.30;0.30;;;7.40;99.90;;;;;;5056367;28;20185;-74
2022/03/16 06:12:02;;;;;;;0.30;0.30;;;7.60;99.90;;;;;;5055864;28;20533;-73
2022/03/16 06:14:28;;;;;;;0.35;0.35;;;7.70;99.90;;;;;;5056144;28;20447;-74
2022/03/16 06:16:54;;;;;;;0.30;0.30;;;7.70;99.40;;;;;;5056332;28;20575;-74
2022/03/16 06:19:20;;;;;;;0.30;0.30;;;7.80;99.50;;;;;;5056284;28;20166;-74
2022/03/16 06:21:46;;;;;;;0.30;0.30;;;7.80;99.50;;;;;;5055807;28;20409;-74
2022/03/16 06:24:12;;;;;;;0.30;0.30;;;7.70;99.70;;;;;;5056198;28;20178;-74
2022/03/16 06:26:38;;;;;;;0.30;0.30;;;7.90;99.90;;;;;;5055939;28;20225;-75
2022/03/16 06:29:04;;;;;;;0.30;0.30;;;8.00;99.70;;;;;;5056031;28;20192;-75
2022/03/16 06:31:30;;;;;;;0.30;0.30;;;8.10;99.60;;;;;;5055797;28;20170;-72
2022/03/16 06:33:56;;;;;;;0.30;0.30;;;8.30;99.50;;;;;;5055975;28;20172;-74
2022/03/16 06:36:21;;;;;;;0.30;0.30;;;8.50;99.20;;;;;;5055786;28;20191;-72
2022/03/16 06:38:47;;;;;;;0.30;0.30;;;8.70;99.00;;;;;;5055888;28;20181;-73
2022/03/16 06:41:13;;;;;;;0.30;0.30;;;8.80;99.00;;;;;;5055547;28;20234;-73
2022/03/16 06:43:38;;;;;;;0.30;0.30;;;8.90;98.90;;;;;;5055858;28;20257;-74
2022/03/16 06:46:04;;;;;;;0.30;0.30;;;9.10;99.10;;;;;;5055461;28;20211;-74
2022/03/16 06:48:30;;;;;;;0.30;0.30;;;9.30;98.80;;;;;;5054320;28;20217;-72
2022/03/16 06:50:55;;;;;;;0.30;0.30;;;9.30;97.80;;;;;;5055185;28;20169;-75
2022/03/16 06:53:21;;;;;;;0.40;0.40;;;9.20;97.60;;;;;;5054176;28;20175;-72
2022/03/16 06:55:47;;;;;;;0.60;0.60;;;9.20;98.20;;;;;;5055170;28;20219;-72
2022/03/16 06:58:12;;;;;;;0.30;0.30;;;9.50;98.50;;;;;;5055082;28;20175;-73
2022/03/16 07:00:38;;;;;;;0.40;0.40;;;9.70;98.30;;;;;;5054859;28;20705;-70
2022/03/16 07:03:05;;;;;;;0.30;0.30;;;9.90;97.30;;;;;;5055269;28;20195;-73
2022/03/16 07:05:35;;;;;;;0.30;0.30;;;10.20;96.20;;;;;;5055202;28;20234;-73
2022/03/16 07:08:08;;;;;;;0.30;0.30;;;10.30;95.90;;;;;;5055069;28;20169;-73
2022/03/16 07:10:36;;;;;;;0.30;0.30;;;10.60;95.00;;;;;;5055223;28;20272;-73
2022/03/16 07:13:02;;;;;;;0.30;0.30;;;11.00;93.90;;;;;;5055103;28;20224;-72
2022/03/16 07:15:28;;;;;;;0.30;0.30;;;11.30;93.20;;;;;;5052658;28;20201;-73
2022/03/16 07:17:54;;;;;;;0.30;0.30;;;11.70;92.60;;;;;;5055028;28;20178;-71
2022/03/16 07:20:20;;;;;;;0.30;0.30;;;11.80;92.10;;;;;;5054845;28;20189;-71
2022/03/16 07:22:59;;;;;;;0.30;0.30;;;12.00;91.90;;;;;;5054840;28;20186;-72
2022/03/16 07:25:25;;;;;;;0.30;0.30;;;12.10;92.20;;;;;;5054694;28;20280;-72
2022/03/16 07:27:50;;;;;;;0.30;0.30;;;12.40;91.60;;;;;;5055093;28;20687;-71
2022/03/16 07:30:16;;;;;;;1.43;1.43;;;12.70;91.00;;;;;;5053432;28;20170;-72
2022/03/16 07:32:41;;;;;;;0.30;0.30;;;13.00;90.90;;;;;;5049582;28;20174;-74
2022/03/16 07:35:11;;;;;;;0.30;0.30;;;13.40;90.40;;;;;;5052442;28;20679;-77
2022/03/16 07:37:39;;;;;;;0.30;0.30;;;13.90;89.30;;;;;;5054053;28;20592;-76
2022/03/16 07:40:06;;;;;;;0.30;0.30;;;14.20;87.60;;;;;;5052452;28;20694;-73
2022/03/16 07:42:32;;;;;;;0.90;0.90;;;14.40;86.60;;;;;;5054894;28;20170;-76
2022/03/16 07:44:58;;;;;;;0.30;0.30;;;14.70;86.40;;;;;;5054359;28;20478;-73
2022/03/16 07:47:25;;;;;;;0.30;0.30;;;15.10;85.10;;;;;;5054409;28;20898;-76
2022/03/16 07:49:56;;;;;;;0.90;0.90;;;15.30;84.30;;;;;;5054557;28;20408;-75
2022/03/16 07:52:25;;;;;;;0.63;0.63;;;15.60;81.70;;;;;;5054756;28;20412;-74
2022/03/16 07:54:51;;;;;;;0.40;0.40;;;15.50;82.40;;;;;;5054424;28;20893;-72
2022/03/16 07:57:17;;;;;;;0.70;0.70;;;15.90;81.80;;;;;;5054187;28;20512;-75
2022/03/16 07:59:43;;;;;;;0.30;0.30;;;16.20;79.80;;;;;;5054335;28;20890;-73
2022/03/16 08:02:09;;;;;;;0.30;0.30;;;16.40;78.30;;;;;;5054039;28;20694;-75
2022/03/16 08:04:35;;;;;;;0.30;0.30;;;16.80;78.20;;;;;;5053960;28;20484;-73
2022/03/16 08:07:00;;;;;;;0.30;0.30;;;17.20;75.40;;;;;;5053948;28;20202;-78
2022/03/16 08:09:26;;;;;;;0.30;0.30;;;17.30;75.60;;;;;;5053084;28;20177;-75
2022/03/16 08:11:52;;;;;;;0.40;0.40;;;17.50;74.40;;;;;;5052860;28;20166;-74
2022/03/16 08:14:17;;;;;;;0.30;0.30;;;18.00;73.10;;;;;;5052866;28;20471;-73
2022/03/16 08:16:43;;;;;;;0.30;0.30;;;18.50;72.50;;;;;;5053014;28;20235;-75
2022/03/16 08:19:09;;;;;;;0.50;0.50;;;19.00;70.10;;;;;;5052771;28;20170;-77
2022/03/16 08:21:34;;;;;;;0.40;0.40;;;19.50;69.60;;;;;;5052446;28;20654;-76
2022/03/16 08:24:00;;;;;;;3.33;1.60;;;19.50;67.90;;;;;;5053601;28;20264;-74
2022/03/16 08:26:26;;;;;;;0.40;0.40;;;19.50;67.70;;;;;;5051183;28;20197;-76
2022/03/16 08:28:51;;;;;;;0.37;0.37;;;20.00;64.70;;;;;;5052287;28;20220;-76
2022/03/16 08:31:18;;;;;;;0.30;0.30;;;20.40;63.50;;;;;;5054133;28;20178;-77
2022/03/16 08:33:45;;;;;;;0.40;0.40;;;20.50;62.90;;;;;;5049607;28;20424;-77
2022/03/16 08:36:11;;;;;;;0.30;0.30;;;20.50;64.00;;;;;;5053177;28;20424;-76
2022/03/16 08:38:37;;;;;;;0.30;0.30;;;20.30;63.60;;;;;;5053056;28;20234;-74
2022/03/16 08:41:07;;;;;;;0.30;0.30;;;19.70;63.60;;;;;;5053181;28;20413;-75
2022/03/16 08:43:36;;;;;;;0.50;0.50;;;19.20;65.50;;;;;;5060176;28;20408;-76
2022/03/16 08:46:02;;;;;;;0.30;0.30;;;19.20;65.60;;;;;;5052319;28;20495;-75
2022/03/16 08:48:29;;;;;;;0.50;0.50;;;19.30;64.80;;;;;;5052151;28;20409;-76
2022/03/16 08:50:54;;;;;;;1.13;1.07;;;19.50;65.70;;;;;;5053274;28;20409;-76
2022/03/16 08:53:20;;;;;;;0.40;0.40;;;19.90;65.10;;;;;;5052646;28;20413;-75
2022/03/16 08:55:45;;;;;;;0.30;0.30;;;20.00;60.00;;;;;;5052962;28;20276;-76
2022/03/16 08:58:14;;;;;;;0.33;0.33;;;20.10;63.20;;;;;;5053811;28;20174;-75
2022/03/16 09:00:41;;;;;;;0.30;0.30;;;19.80;63.50;;;;;;5053434;28;20269;-74
2022/03/16 09:03:07;;;;;;;0.30;0.30;;;19.90;65.10;;;;;;5053564;28;20496;-78
2022/03/16 09:05:32;;;;;;;0.70;0.70;;;20.00;63.80;;;;;;5053324;28;20556;-78
2022/03/16 09:07:58;;;;;;;0.30;0.30;;;20.10;63.60;;;;;;5052554;28;20898;-74
2022/03/16 09:10:24;;;;;;;0.37;0.37;;;19.80;60.90;;;;;;5053495;28;20227;-74
2022/03/16 09:12:49;;;;;;;0.30;0.30;;;19.50;58.90;;;;;;5053707;28;20256;-75
2022/03/16 09:15:15;;;;;;;0.30;0.30;;;19.60;58.00;;;;;;5051926;28;20198;-75
2022/03/16 09:17:41;;;;;;;0.50;0.50;;;19.60;56.90;;;;;;5053052;28;20194;-77
2022/03/16 09:20:06;;;;;;;0.40;0.40;;;20.00;57.50;;;;;;5052385;28;20184;-75
2022/03/16 09:22:32;;;;;;;0.30;0.30;;;20.30;55.30;;;;;;5050320;28;20186;-76
2022/03/16 09:24:58;;;;;;;0.60;0.60;;;20.10;56.00;;;;;;5053318;28;20201;-78
2022/03/16 09:27:25;;;;;;;0.30;0.30;;;20.20;56.70;;;;;;5053541;28;20982;-75
2022/03/16 09:29:53;;;;;;;0.50;0.50;;;20.30;56.20;;;;;;5053083;28;20446;-76
2022/03/16 09:32:21;;;;;;;0.30;0.30;;;20.40;55.30;;;;;;5052960;28;20400;-73
2022/03/16 09:34:51;;;;;;;0.30;0.30;;;20.20;55.70;;;;;;5053198;28;20820;-76
2022/03/16 09:37:17;;;;;;;0.40;0.40;;;20.20;56.90;;;;;;5053183;28;20443;-74
2022/03/16 09:39:42;;;;;;;0.53;0.53;;;20.20;55.50;;;;;;5056484;28;20396;-77
2022/03/16 09:42:09;;;;;;;0.30;0.30;;;20.00;55.60;;;;;;5056975;28;20166;-77
2022/03/16 09:44:36;;;;;;;0.60;0.50;;;19.90;55.40;;;;;;5057132;28;20578;-78
2022/03/16 09:47:03;;;;;;;0.40;0.40;;;19.80;55.50;;;;;;5057105;28;20452;-74
2022/03/16 09:49:29;;;;;;;0.40;0.40;;;19.00;56.10;;;;;;5056942;28;20407;-78
2022/03/16 09:51:56;;;;;;;0.33;0.33;;;18.40;56.60;;;;;;5054832;28;20830;-74
2022/03/16 09:54:22;;;;;;;0.40;0.40;;;18.10;57.30;;;;;;5057453;28;20401;-75
2022/03/16 09:56:48;;;;;;;0.30;0.30;;;17.60;58.30;;;;;;5057593;28;20412;-77
2022/03/16 09:59:15;;;;;;;0.40;0.40;;;17.10;59.20;;;;;;5056926;28;20439;-76
2022/03/16 10:01:44;;;;;;;0.30;0.30;;;17.00;59.20;;;;;;5055384;28;20837;-79
2022/03/16 10:04:10;;;;;;;0.40;0.40;;;16.70;60.30;;;;;;5056670;28;20416;-77
2022/03/16 10:06:37;;;;;;;0.30;0.30;;;17.00;62.60;;;;;;5054187;28;20550;-75
2022/03/16 10:15:21;;;;;;;3.60;1.43;;;16.10;62.00;;;;;;5054980;28;20995;-74
2022/03/16 10:17:49;;;;;;;0.30;0.30;;;15.70;64.80;;;;;;5056370;28;20474;-75
2022/03/16 10:20:21;;;;;;;0.60;0.60;;;16.10;66.20;;;;;;5056015;28;20409;-76
2022/03/16 10:23:08;;;;;;;0.30;0.30;;;16.40;62.70;;;;;;5056056;28;20404;-76
2022/03/16 10:25:37;;;;;;;0.40;0.40;;;16.90;61.20;;;;;;5056039;28;20488;-73
2022/03/16 10:28:16;;;;;;;0.30;0.30;;;17.30;62.70;;;;;;5055943;28;20434;-76
2022/03/16 10:30:59;;;;;;;0.30;0.30;;;17.10;59.90;;;;;;5056149;28;20392;-75
2022/03/16 10:33:31;;;;;;;0.30;0.30;;;17.00;60.40;;;;;;5055994;28;20405;-74
2022/03/16 10:35:57;;;;;;;0.30;0.30;;;17.20;59.60;;;;;;5056185;28;20432;-75
2022/03/16 10:38:24;;;;;;;0.30;0.30;;;17.60;59.60;;;;;;5055686;28;20427;-74
2022/03/16 10:40:50;;;;;;;0.30;0.30;;;17.70;60.20;;;;;;5053614;28;20227;-72
2022/03/16 10:48:58;;;;;;;0.30;0.30;;;18.10;60.60;;;;;;5054149;28;20400;-75
2022/03/16 10:51:24;;;;;;;0.97;0.97;;;18.30;58.90;;;;;;5055479;28;20405;-77
2022/03/16 10:53:52;;;;;;;0.30;0.30;;;18.20;61.20;;;;;;5055442;28;20901;-74
2022/03/16 10:56:19;;;;;;;0.30;0.30;;;17.30;59.70;;;;;;5055441;28;20200;-76
2022/03/16 10:58:47;;;;;;;0.30;0.30;;;16.40;61.70;;;;;;5055624;28;20938;-76
2022/03/16 11:01:15;;;;;;;0.47;0.47;;;16.40;63.80;;;;;;5055119;28;20798;-75
2022/03/16 11:03:44;;;;;;;0.40;0.40;;;15.80;64.10;;;;;;5055565;28;20458;-75
2022/03/16 11:06:10;;;;;;;0.63;0.63;;;15.90;67.30;;;;;;5055073;28;20537;-76
2022/03/16 11:08:41;;;;;;;0.30;0.30;;;15.70;66.10;;;;;;5055306;28;20396;-73
2022/03/16 11:13:28;;;;;;;0.30;0.30;;;16.00;66.00;;;;;;5055030;28;20897;-75
2022/03/16 11:13:55;;;;;;;0.90;0.90;;;16.60;65.70;;;;;;5055052;28;20408;-75
2022/03/16 11:16:21;;;;;;;0.30;0.30;;;17.00;65.10;;;;;;5055027;28;20802;-75
2022/03/16 11:18:51;;;;;;;0.30;0.30;;;16.60;63.00;;;;;;5055334;28;20487;-74
2022/03/16 11:21:44;;;;;;;0.37;0.37;;;16.20;62.60;;;;;;5055013;28;20401;-77
2022/03/16 11:24:16;;;;;;;0.50;0.50;;;16.50;64.00;;;;;;5055128;28;20805;-77
2022/03/16 11:27:09;;;;;;;0.30;0.30;;;17.00;63.40;;;;;;5055103;28;20543;-74
2022/03/16 11:30:12;;;;;;;0.40;0.40;;;17.40;60.70;;;;;;5055130;28;20403;-73
2022/03/16 11:32:42;;;;;;;0.30;0.30;;;17.60;60.50;;;;;;5054845;28;20802;-76
2022/03/16 11:35:11;;;;;;;0.30;0.30;;;17.80;60.50;;;;;;5055096;28;20412;-77
2022/03/16 11:37:47;;;;;;;0.30;0.30;;;18.00;60.00;;;;;;5054735;28;20487;-77
2022/03/16 11:40:16;;;;;;;0.50;0.50;;;18.30;59.30;;;;;;5054770;28;20513;-76
2022/03/16 11:43:04;;;;;;;0.30;0.30;;;18.30;58.90;;;;;;5054684;28;20401;-76
2022/03/16 11:45:54;;;;;;;0.50;0.50;;;18.00;58.90;;;;;;5053941;28;20504;-77
2022/03/16 11:48:32;;;;;;;0.30;0.30;;;17.40;60.40;;;;;;5053987;28;20409;-75
2022/03/16 11:51:13;;;;;;;0.30;0.30;;;17.50;59.40;;;;;;5054246;28;20392;-76
2022/03/16 11:56:22;;;;;;;0.30;0.30;;;17.60;62.60;;;;;;5054429;28;20427;-75
2022/03/16 11:59:02;;;;;;;0.30;0.30;;;16.70;60.00;;;;;;5054326;28;20491;-75
2022/03/16 12:01:39;;;;;;;0.50;0.50;;;16.70;62.00;;;;;;5053571;28;20798;-77
2022/03/16 12:04:13;;;;;;;1.00;0.73;;;16.20;61.30;;;;;;5054510;28;20406;-77
2022/03/16 12:07:04;;;;;;;0.30;0.30;;;16.40;62.70;;;;;;5054154;28;20475;-74
2022/03/16 12:09:39;;;;;;;0.30;0.30;;;16.60;60.10;;;;;;5054340;28;20405;-75
2022/03/16 12:15:24;;;;;;;0.83;0.83;;;17.20;60.80;;;;;;5053929;28;20471;-73
2022/03/16 12:17:52;;;;;;;0.30;0.30;;;17.50;60.20;;;;;;5054046;28;20810;-73
2022/03/16 12:20:21;;;;;;;0.37;0.37;;;17.50;59.40;;;;;;5053857;28;20920;-74
2022/03/16 12:22:58;;;;;;;0.30;0.30;;;17.00;59.20;;;;;;5053769;28;20478;-74
2022/03/16 12:25:27;;;;;;;0.30;0.30;;;17.10;60.70;;;;;;5053814;28;20438;-73
2022/03/16 12:30:45;;;;;;;0.30;0.30;;;17.00;60.40;;;;;;5054095;28;20403;-74
2022/03/16 12:33:19;;;;;;;0.30;0.30;;;16.60;59.70;;;;;;5053732;28;20415;-75
2022/03/16 12:35:49;;;;;;;0.30;0.30;;;17.10;59.90;;;;;;5053585;28;20463;-76
2022/03/16 12:38:15;;;;;;;0.30;0.30;;;17.60;59.30;;;;;;5053739;28;20405;-73
2022/03/16 12:43:27;;;;;;;0.37;0.37;;;18.00;59.10;;;;;;5053996;28;20184;-77
2022/03/16 12:45:59;;;;;;;0.83;0.83;;;18.20;57.90;;;;;;5053329;28;20571;-74
2022/03/16 12:48:33;;;;;;;0.30;0.30;;;18.00;57.40;;;;;;5053707;28;20404;-74
2022/03/16 12:51:00;;;;;;;0.30;0.30;;;18.00;57.90;;;;;;5052052;28;20918;-77
2022/03/16 12:53:58;;;;;;;0.30;0.30;;;17.80;59.30;;;;;;5053637;28;20409;-74
2022/03/16 12:56:23;;;;;;;0.70;0.70;;;17.50;58.50;;;;;;5053446;28;20804;-77
2022/03/16 12:58:55;;;;;;;0.50;0.50;;;17.20;59.00;;;;;;5053311;28;20415;-74
2022/03/16 13:01:22;;;;;;;0.30;0.30;;;17.30;58.70;;;;;;5051014;28;20565;-74
2022/03/16 13:03:59;;;;;;;0.40;0.40;;;17.20;58.50;;;;;;5053795;28;20408;-75
2022/03/16 13:06:25;;;;;;;0.40;0.40;;;16.90;59.50;;;;;;5053263;28;20463;-77
2022/03/16 13:08:52;;;;;;;0.30;0.30;;;16.50;60.00;;;;;;5053493;28;20411;-74
2022/03/16 13:11:28;;;;;;;0.60;0.60;;;16.30;60.30;;;;;;5053437;28;20405;-74
2022/03/16 13:14:15;;;;;;;0.30;0.30;;;16.00;61.50;;;;;;5054392;28;20427;-74
2022/03/16 13:16:46;;;;;;;0.40;0.40;;;16.40;63.30;;;;;;5058005;28;20436;-74
2022/03/16 13:19:27;;;;;;;0.30;0.30;;;17.00;61.40;;;;;;5058007;28;20419;-73